Time;durP1;ratioP1;P1;durP2;ratioP2;P2;SDS_P1;SDS_P2;PMS_P1;PMS_P2;Temp;Humidity;BMP_temperature;BMP_pressure;BME280_temperature;BME280_humidity;BME280_pressure;Samples;Min_cycle;Max_cycle;Signal;HPM_P1;HPM_P2
2023/05/14 00:00:11;;;;;;;15.57;12.70;;;10.40;1.00;;;;;;5032756;28;20438;-49
2023/05/14 00:02:37;;;;;;;15.97;12.03;;;10.40;1.00;;;;;;5033558;28;20838;-49
2023/05/14 00:05:02;;;;;;;13.13;11.10;;;10.30;1.00;;;;;;5033815;28;20434;-49
2023/05/14 00:07:29;;;;;;;12.93;11.27;;;10.30;1.00;;;;;;5033548;28;20191;-49
2023/05/14 00:09:56;;;;;;;13.57;11.97;;;10.30;1.00;;;;;;5033516;28;20234;-49
2023/05/14 00:12:22;;;;;;;14.53;12.40;;;10.20;1.00;;;;;;5033449;28;20437;-49
2023/05/14 00:14:47;;;;;;;16.40;12.80;;;10.20;1.00;;;;;;5033439;28;20473;-49
2023/05/14 00:17:13;;;;;;;19.63;12.70;;;10.20;1.00;;;;;;5033357;28;20203;-49
2023/05/14 00:19:40;;;;;;;14.50;11.90;;;10.10;1.00;;;;;;5033148;28;20513;-49
2023/05/14 00:22:07;;;;;;;15.23;12.67;;;10.00;5.50;;;;;;5041318;28;20202;-49
2023/05/14 00:24:33;;;;;;;15.67;13.27;;;10.00;13.40;;;;;;5053249;28;20418;-49
2023/05/14 00:26:58;;;;;;;16.00;13.67;;;9.90;15.60;;;;;;5053249;28;20413;-49
2023/05/14 00:29:24;;;;;;;16.67;13.80;;;9.90;14.40;;;;;;5042950;28;21013;-49
2023/05/14 00:31:50;;;;;;;15.33;13.53;;;9.80;38.70;;;;;;5032108;28;20192;-49
2023/05/14 00:34:15;;;;;;;19.90;14.83;;;9.70;54.50;;;;;;5032105;28;20730;-50
2023/05/14 00:36:41;;;;;;;20.23;16.33;;;9.70;98.00;;;;;;5032741;28;20241;-49
2023/05/14 00:39:07;;;;;;;19.70;14.77;;;9.60;99.90;;;;;;5032363;28;20191;-49
2023/05/14 00:41:32;;;;;;;16.10;14.33;;;9.60;99.90;;;;;;5032345;28;20341;-49
2023/05/14 00:43:58;;;;;;;21.93;15.40;;;9.60;99.90;;;;;;5032185;28;20192;-49
2023/05/14 00:46:23;;;;;;;17.10;14.10;;;9.50;99.90;;;;;;5032991;28;20188;-49
2023/05/14 00:48:49;;;;;;;19.80;14.73;;;9.50;99.90;;;;;;5030576;28;20186;-49
2023/05/14 00:51:15;;;;;;;18.23;14.30;;;9.50;99.90;;;;;;5031832;28;20242;-49
2023/05/14 00:53:41;;;;;;;19.40;15.70;;;9.40;99.90;;;;;;5031111;28;20251;-49
2023/05/14 00:56:07;;;;;;;28.70;16.43;;;9.40;99.90;;;;;;5032051;28;20422;-50
2023/05/14 00:58:33;;;;;;;17.57;14.80;;;9.40;99.90;;;;;;5031765;28;20199;-49
2023/05/14 01:00:58;;;;;;;19.40;16.50;;;9.40;99.90;;;;;;5032274;28;20438;-49
2023/05/14 01:03:24;;;;;;;24.00;17.00;;;9.30;99.90;;;;;;5036775;28;20206;-49
2023/05/14 01:06:20;;;;;;;22.07;17.00;;;9.30;99.90;;;;;;5036865;28;20210;-49
2023/05/14 01:08:48;;;;;;;23.23;17.20;;;9.30;99.90;;;;;;5035165;28;20187;-49
2023/05/14 01:11:14;;;;;;;26.07;17.03;;;9.30;1.00;;;;;;5036258;28;20944;-49
2023/05/14 01:14:23;;;;;;;24.30;17.47;;;9.30;1.00;;;;;;5036835;28;20425;-49
2023/05/14 01:16:53;;;;;;;20.70;15.80;;;9.40;1.00;;;;;;5035646;28;20219;-49
2023/05/14 01:19:27;;;;;;;16.30;13.70;;;9.40;79.10;;;;;;5036464;28;20426;-49
2023/05/14 01:21:52;;;;;;;18.17;15.20;;;9.50;1.00;;;;;;5036195;28;20406;-49
2023/05/14 01:24:18;;;;;;;17.90;12.93;;;9.50;1.00;;;;;;5036349;28;20780;-49
2023/05/14 01:26:44;;;;;;;17.50;12.60;;;9.60;1.00;;;;;;5036589;28;20175;-49
2023/05/14 01:29:25;;;;;;;19.53;11.40;;;9.70;1.00;;;;;;5036452;28;20472;-49
2023/05/14 01:31:54;;;;;;;13.73;11.30;;;9.80;1.00;;;;;;5020970;28;20202;-50
2023/05/14 01:34:22;;;;;;;15.23;10.63;;;9.90;99.90;;;;;;5033428;28;21000;-49
2023/05/14 01:36:50;;;;;;;9.83;8.80;;;10.00;99.90;;;;;;5032443;28;20740;-49
2023/05/14 01:39:16;;;;;;;12.77;9.77;;;10.10;99.90;;;;;;5035236;28;20474;-49
2023/05/14 01:41:42;;;;;;;11.63;9.80;;;10.20;99.90;;;;;;5034863;28;20456;-49
2023/05/14 01:44:09;;;;;;;11.60;8.93;;;10.20;99.90;;;;;;5034900;28;20446;-49
2023/05/14 01:46:35;;;;;;;9.70;8.13;;;10.30;99.90;;;;;;5034380;28;20504;-50
2023/05/14 01:49:00;;;;;;;9.13;8.20;;;10.30;89.60;;;;;;5034803;28;20446;-49
2023/05/14 01:51:26;;;;;;;12.07;8.50;;;10.30;55.50;;;;;;5034604;28;20399;-49
2023/05/14 01:53:51;;;;;;;11.97;9.53;;;10.30;29.70;;;;;;5034736;28;20191;-49
2023/05/14 01:56:20;;;;;;;10.40;9.20;;;10.20;33.80;;;;;;5034830;28;20215;-50
2023/05/14 01:58:46;;;;;;;11.67;9.47;;;10.20;28.10;;;;;;5033398;28;20195;-49
2023/05/14 02:01:12;;;;;;;10.60;9.53;;;10.10;23.90;;;;;;5034746;28;20449;-49
2023/05/14 02:03:37;;;;;;;14.83;9.97;;;10.00;23.60;;;;;;5039774;28;20185;-49
2023/05/14 02:06:03;;;;;;;9.87;8.80;;;10.00;28.90;;;;;;5052755;28;20580;-49
2023/05/14 02:08:28;;;;;;;9.23;8.33;;;9.90;41.30;;;;;;5035487;28;20230;-49
2023/05/14 02:10:54;;;;;;;11.83;9.57;;;9.80;46.10;;;;;;5035697;28;20207;-49
2023/05/14 02:13:20;;;;;;;11.30;8.90;;;9.80;53.50;;;;;;5035054;28;20214;-48
2023/05/14 02:15:45;;;;;;;12.17;9.67;;;9.70;66.80;;;;;;5035413;28;20267;-49
2023/05/14 02:18:11;;;;;;;11.30;9.00;;;9.70;70.40;;;;;;5035238;28;20211;-49
2023/05/14 02:20:37;;;;;;;12.90;9.30;;;9.70;92.40;;;;;;5038576;28;20531;-49
2023/05/14 02:23:02;;;;;;;10.07;9.00;;;9.60;98.90;;;;;;5055153;28;20182;-49
2023/05/14 02:25:28;;;;;;;13.73;10.17;;;9.60;99.90;;;;;;5055099;28;20186;-49
2023/05/14 02:27:53;;;;;;;11.37;9.83;;;9.60;99.90;;;;;;5054804;28;20628;-49
2023/05/14 02:30:20;;;;;;;11.93;9.07;;;9.50;99.90;;;;;;5054736;28;20225;-50
2023/05/14 02:32:45;;;;;;;10.93;9.80;;;9.40;99.90;;;;;;5050626;28;20184;-50
2023/05/14 02:35:11;;;;;;;14.50;9.17;;;9.40;99.90;;;;;;5034252;28;20449;-49
2023/05/14 02:37:36;;;;;;;11.50;10.27;;;9.30;99.90;;;;;;5034263;28;20207;-49
2023/05/14 02:40:03;;;;;;;12.67;10.77;;;9.30;99.90;;;;;;5034175;28;20647;-49
2023/05/14 02:42:28;;;;;;;11.90;9.50;;;9.20;99.90;;;;;;5033764;28;20747;-50
2023/05/14 02:44:54;;;;;;;11.37;10.17;;;9.20;99.90;;;;;;5017787;28;20446;-49
2023/05/14 02:47:19;;;;;;;13.90;10.60;;;9.10;99.90;;;;;;5034904;28;20578;-49
2023/05/14 02:49:45;;;;;;;14.50;10.70;;;9.10;99.90;;;;;;5033108;28;20227;-49
2023/05/14 02:52:11;;;;;;;14.40;11.60;;;9.00;99.90;;;;;;5033373;28;20213;-49
2023/05/14 02:54:36;;;;;;;16.73;10.70;;;8.90;99.90;;;;;;5033604;28;20286;-49
2023/05/14 02:57:02;;;;;;;11.67;10.47;;;8.90;99.90;;;;;;5032870;28;20242;-49
2023/05/14 02:59:28;;;;;;;13.57;10.73;;;8.90;99.90;;;;;;5032553;28;20249;-49
2023/05/14 03:01:54;;;;;;;13.27;10.67;;;8.90;99.90;;;;;;5032715;28;20600;-49
2023/05/14 03:04:20;;;;;;;13.07;11.30;;;8.80;1.00;;;;;;5033099;28;20528;-49
2023/05/14 03:06:45;;;;;;;13.33;11.93;;;8.80;1.00;;;;;;5034422;28;20215;-49
2023/05/14 03:09:11;;;;;;;15.53;11.37;;;8.80;1.00;;;;;;5033547;28;20186;-49
2023/05/14 03:11:36;;;;;;;13.70;11.50;;;8.70;1.00;;;;;;5032022;28;20282;-49
2023/05/14 03:14:02;;;;;;;12.20;10.67;;;8.70;1.00;;;;;;5034058;28;20226;-49
2023/05/14 03:16:27;;;;;;;21.60;12.10;;;8.70;1.00;;;;;;5034200;28;20211;-49
2023/05/14 03:18:53;;;;;;;13.67;11.23;;;8.60;1.00;;;;;;5033331;28;20188;-49
2023/05/14 03:21:19;;;;;;;13.47;11.23;;;8.60;1.00;;;;;;5032332;28;20187;-49
2023/05/14 03:23:44;;;;;;;14.40;10.90;;;8.60;1.00;;;;;;5032887;28;20274;-49
2023/05/14 03:26:10;;;;;;;12.00;10.73;;;8.60;7.40;;;;;;5033998;28;20266;-49
2023/05/14 03:28:35;;;;;;;11.87;10.60;;;8.60;51.10;;;;;;5032244;28;20738;-49
2023/05/14 03:31:01;;;;;;;12.33;11.03;;;8.60;83.60;;;;;;5032486;28;20187;-49
2023/05/14 03:33:27;;;;;;;14.50;11.10;;;8.60;15.00;;;;;;5032641;28;20567;-49
2023/05/14 03:35:52;;;;;;;12.90;11.03;;;8.60;1.00;;;;;;5033324;28;20192;-49
2023/05/14 03:38:18;;;;;;;17.50;12.60;;;8.60;1.00;;;;;;5032902;28;20246;-49
2023/05/14 03:40:44;;;;;;;14.33;12.13;;;8.60;39.50;;;;;;5032712;28;20191;-49
2023/05/14 03:43:10;;;;;;;14.37;12.47;;;8.50;99.90;;;;;;5032457;28;20187;-49
2023/05/14 03:45:36;;;;;;;15.23;12.43;;;8.50;99.90;;;;;;5032134;28;20443;-49
2023/05/14 03:48:01;;;;;;;14.53;11.53;;;8.60;99.90;;;;;;5031055;28;20942;-49
2023/05/14 03:50:27;;;;;;;18.93;11.90;;;8.50;99.90;;;;;;5032482;28;20242;-49
2023/05/14 03:52:53;;;;;;;13.10;11.37;;;8.60;1.00;;;;;;5032581;28;20191;-49
2023/05/14 03:55:20;;;;;;;14.43;11.07;;;8.60;1.00;;;;;;5031888;28;20198;-49
2023/05/14 03:57:46;;;;;;;12.70;11.10;;;8.60;1.00;;;;;;5031436;28;20797;-50
2023/05/14 04:00:12;;;;;;;13.77;11.77;;;8.70;1.00;;;;;;5032216;28;20496;-49
2023/05/14 04:02:38;;;;;;;12.13;9.70;;;8.70;1.00;;;;;;5032155;28;20923;-49
2023/05/14 04:05:04;;;;;;;12.63;11.30;;;8.80;1.00;;;;;;5033711;28;20513;-49
2023/05/14 04:07:29;;;;;;;14.03;12.10;;;8.80;1.00;;;;;;5033535;28;20640;-49
2023/05/14 04:09:55;;;;;;;11.90;10.50;;;8.80;1.00;;;;;;5033402;28;20662;-49
2023/05/14 04:12:21;;;;;;;11.93;10.70;;;8.80;1.00;;;;;;5033556;28;20184;-49
2023/05/14 04:14:46;;;;;;;12.23;10.93;;;8.80;99.90;;;;;;5033444;28;20187;-49
2023/05/14 04:17:12;;;;;;;13.10;11.77;;;8.90;99.90;;;;;;5032354;28;20203;-49
2023/05/14 04:19:38;;;;;;;16.00;11.23;;;8.90;99.90;;;;;;5031229;28;20270;-49
2023/05/14 04:22:04;;;;;;;13.23;11.00;;;8.90;1.00;;;;;;5032240;28;20302;-49
2023/05/14 04:24:29;;;;;;;12.23;11.00;;;9.00;1.00;;;;;;5032898;28;20446;-49
2023/05/14 04:26:55;;;;;;;15.13;11.40;;;9.00;99.90;;;;;;5032632;28;20446;-49
2023/05/14 04:29:21;;;;;;;13.20;11.63;;;9.10;99.90;;;;;;5032024;28;20175;-49
2023/05/14 04:31:47;;;;;;;13.20;11.80;;;9.20;99.90;;;;;;5031657;28;20195;-49
2023/05/14 04:34:13;;;;;;;17.03;12.03;;;9.20;99.90;;;;;;5031881;28;21703;-49
2023/05/14 04:36:39;;;;;;;13.93;9.63;;;9.30;99.90;;;;;;5035096;28;20926;-49
2023/05/14 04:39:04;;;;;;;13.53;11.53;;;9.40;99.90;;;;;;5036108;28;20187;-49
2023/05/14 04:41:30;;;;;;;15.10;11.40;;;9.50;99.90;;;;;;5037089;28;20171;-49
2023/05/14 04:43:57;;;;;;;15.43;10.37;;;9.70;99.90;;;;;;5037099;28;20547;-49
2023/05/14 04:46:23;;;;;;;13.23;10.73;;;9.80;99.90;;;;;;5036738;28;20183;-49
2023/05/14 04:48:50;;;;;;;13.00;9.80;;;9.90;99.90;;;;;;5036996;28;20420;-49
2023/05/14 04:51:15;;;;;;;13.20;10.10;;;10.10;26.70;;;;;;5036543;28;20242;-49
2023/05/14 04:53:41;;;;;;;12.53;11.27;;;10.20;1.00;;;;;;5037333;28;20422;-49
2023/05/14 04:56:06;;;;;;;11.57;10.37;;;10.40;1.00;;;;;;5036815;28;20521;-49
2023/05/14 04:58:32;;;;;;;12.87;10.90;;;10.60;1.00;;;;;;5036593;28;20191;-49
2023/05/14 05:00:58;;;;;;;11.53;10.33;;;10.80;1.00;;;;;;5036815;28;20222;-49
2023/05/14 05:03:24;;;;;;;12.60;9.90;;;11.00;1.00;;;;;;5036458;28;20183;-49
2023/05/14 05:05:50;;;;;;;11.27;9.70;;;11.20;99.90;;;;;;5036405;28;20406;-49
2023/05/14 05:08:15;;;;;;;11.37;10.17;;;11.40;99.90;;;;;;5036661;28;20207;-49
2023/05/14 05:10:41;;;;;;;15.40;9.50;;;11.60;99.90;;;;;;5035623;28;20480;-49
2023/05/14 05:13:06;;;;;;;13.47;9.03;;;11.80;99.90;;;;;;5036574;28;20182;-49
2023/05/14 05:15:32;;;;;;;11.33;9.67;;;12.00;99.90;;;;;;5035696;28;20689;-50
2023/05/14 05:17:58;;;;;;;13.00;9.37;;;12.20;99.90;;;;;;5036562;28;20223;-49
2023/05/14 05:20:24;;;;;;;11.50;10.10;;;12.40;26.70;;;;;;5032897;28;20195;-50
2023/05/14 05:22:49;;;;;;;14.00;9.83;;;12.60;1.00;;;;;;5035348;28;20195;-49
2023/05/14 05:25:15;;;;;;;10.20;9.20;;;12.80;1.00;;;;;;5035240;28;20415;-50
2023/05/14 05:27:41;;;;;;;9.60;8.70;;;13.10;1.00;;;;;;5035285;28;20226;-49
2023/05/14 05:30:07;;;;;;;10.63;9.23;;;13.30;1.00;;;;;;5035363;28;20663;-49
2023/05/14 05:32:33;;;;;;;9.30;8.33;;;13.60;1.00;;;;;;5035434;28;20278;-49
2023/05/14 05:34:58;;;;;;;9.57;8.50;;;13.90;1.00;;;;;;5035278;28;20525;-50
2023/05/14 05:37:24;;;;;;;10.00;8.43;;;14.10;1.00;;;;;;5034395;28;20529;-49
2023/05/14 05:39:49;;;;;;;10.77;8.80;;;14.30;1.00;;;;;;5034692;28;20230;-50
2023/05/14 05:42:15;;;;;;;8.87;8.07;;;14.60;1.00;;;;;;5035830;28;20187;-49
2023/05/14 05:44:41;;;;;;;9.70;8.17;;;14.70;1.00;;;;;;5034886;28;20518;-49
2023/05/14 05:47:06;;;;;;;9.90;8.90;;;15.00;1.00;;;;;;5033405;28;20224;-49
2023/05/14 05:49:32;;;;;;;8.37;7.57;;;15.30;1.00;;;;;;5034382;28;20674;-49
2023/05/14 05:51:57;;;;;;;9.47;8.20;;;15.60;1.00;;;;;;5033954;28;20187;-49
2023/05/14 05:54:24;;;;;;;9.03;8.13;;;15.90;1.00;;;;;;5035583;28;20173;-50
2023/05/14 05:56:50;;;;;;;8.97;7.50;;;16.10;1.00;;;;;;5034020;28;20264;-50
2023/05/14 05:59:15;;;;;;;8.20;7.40;;;16.30;1.00;;;;;;5033822;28;20526;-50
2023/05/14 06:01:42;;;;;;;9.27;7.70;;;16.60;1.00;;;;;;5034607;28;20923;-49
2023/05/14 06:04:08;;;;;;;10.10;7.70;;;16.90;1.00;;;;;;5035679;28;20180;-49
2023/05/14 06:06:34;;;;;;;8.33;7.50;;;17.20;1.00;;;;;;5035259;28;20413;-50
2023/05/14 06:09:00;;;;;;;8.83;7.50;;;17.30;1.00;;;;;;5035304;28;20935;-50
2023/05/14 06:11:26;;;;;;;7.10;6.40;;;17.50;1.00;;;;;;5035217;28;20532;-50
2023/05/14 06:13:52;;;;;;;8.00;7.30;;;17.70;1.00;;;;;;5035128;28;20447;-50
2023/05/14 06:16:18;;;;;;;10.20;7.70;;;17.90;1.00;;;;;;5035615;28;20244;-50
2023/05/14 06:18:44;;;;;;;10.30;7.30;;;18.20;1.00;;;;;;5035664;28;20859;-50
2023/05/14 06:21:09;;;;;;;8.50;6.90;;;18.30;1.00;;;;;;5033080;28;20186;-50
2023/05/14 06:23:35;;;;;;;8.63;6.67;;;18.30;1.00;;;;;;5035208;28;20787;-51
2023/05/14 06:26:01;;;;;;;7.80;7.03;;;18.20;1.00;;;;;;5035086;28;20232;-50
2023/05/14 06:28:26;;;;;;;7.40;6.70;;;18.10;1.00;;;;;;5034912;28;20189;-50
2023/05/14 06:30:55;;;;;;;8.23;6.83;;;18.20;1.00;;;;;;5035075;28;20236;-51
2023/05/14 06:33:28;;;;;;;6.93;6.27;;;18.10;1.00;;;;;;5019025;28;20188;-50
2023/05/14 06:35:54;;;;;;;6.83;5.97;;;18.40;1.00;;;;;;5022597;28;20421;-50
2023/05/14 06:38:20;;;;;;;9.80;6.77;;;18.80;1.00;;;;;;5034906;28;20475;-51
2023/05/14 06:40:45;;;;;;;7.03;6.30;;;19.10;1.00;;;;;;5035607;28;20479;-50
2023/05/14 06:43:11;;;;;;;7.60;6.90;;;19.50;1.00;;;;;;5033924;28;20183;-51
2023/05/14 06:45:36;;;;;;;8.60;5.90;;;19.80;1.00;;;;;;5034823;28;20186;-50
2023/05/14 06:48:03;;;;;;;16.83;6.43;;;20.10;1.00;;;;;;5034460;28;20668;-50
2023/05/14 06:50:29;;;;;;;8.30;6.80;;;20.40;1.00;;;;;;5032704;28;20326;-52
2023/05/14 06:52:55;;;;;;;10.17;6.47;;;20.50;1.00;;;;;;5032803;28;20533;-51
2023/05/14 06:55:21;;;;;;;6.37;5.77;;;20.60;1.00;;;;;;5034689;28;20205;-51
2023/05/14 06:57:46;;;;;;;6.60;6.00;;;20.70;1.00;;;;;;5034228;28;20295;-51
2023/05/14 07:00:13;;;;;;;11.80;5.37;;;20.80;1.00;;;;;;5033231;28;20265;-52
2023/05/14 07:02:38;;;;;;;7.37;6.50;;;20.90;1.00;;;;;;5033387;28;20658;-51
2023/05/14 07:05:04;;;;;;;10.23;5.80;;;21.10;1.00;;;;;;5032580;28;20511;-52
2023/05/14 07:07:30;;;;;;;7.87;5.50;;;21.20;1.00;;;;;;5033270;28;20227;-51
2023/05/14 07:09:55;;;;;;;6.97;5.50;;;21.30;1.00;;;;;;5040756;28;20382;-51
2023/05/14 07:12:21;;;;;;;7.47;6.00;;;21.40;1.00;;;;;;5049708;28;20174;-52
2023/05/14 07:14:47;;;;;;;5.70;5.10;;;21.50;1.00;;;;;;5032448;28;20564;-51
2023/05/14 07:17:12;;;;;;;10.07;5.73;;;21.90;1.00;;;;;;5034212;28;20289;-51
2023/05/14 07:19:38;;;;;;;5.93;5.43;;;22.20;1.00;;;;;;5033846;28;20638;-51
2023/05/14 07:22:03;;;;;;;6.00;5.50;;;22.40;1.00;;;;;;5033339;28;20188;-51
2023/05/14 07:24:29;;;;;;;6.03;5.47;;;22.70;1.00;;;;;;5029765;28;20191;-51
2023/05/14 07:26:56;;;;;;;5.47;4.97;;;22.90;99.90;;;;;;5033114;28;20192;-51
2023/05/14 07:29:22;;;;;;;5.27;4.77;;;23.10;99.90;;;;;;5033339;28;20234;-49
2023/05/14 07:31:47;;;;;;;5.23;4.73;;;23.30;99.90;;;;;;5033943;28;20420;-49
2023/05/14 07:34:13;;;;;;;6.07;5.47;;;23.50;99.90;;;;;;5033801;28;20432;-49
2023/05/14 07:36:38;;;;;;;8.20;5.20;;;23.60;99.90;;;;;;5033922;28;20258;-49
2023/05/14 07:39:04;;;;;;;7.57;5.73;;;23.80;99.90;;;;;;5033877;28;20533;-49
2023/05/14 07:41:30;;;;;;;8.60;5.50;;;24.00;99.90;;;;;;5033842;28;20187;-49
2023/05/14 07:43:55;;;;;;;7.30;5.30;;;24.10;99.90;;;;;;5031963;28;20205;-49
2023/05/14 07:46:21;;;;;;;9.07;5.67;;;24.20;99.90;;;;;;5032668;28;20218;-49
2023/05/14 07:48:46;;;;;;;6.27;4.60;;;24.30;99.90;;;;;;5033435;28;20192;-49
2023/05/14 07:51:12;;;;;;;6.43;5.20;;;24.20;99.90;;;;;;5033222;28;20234;-49
2023/05/14 07:53:37;;;;;;;6.10;5.03;;;24.20;99.90;;;;;;5033563;28;20626;-49
2023/05/14 07:56:03;;;;;;;5.13;4.73;;;24.40;99.90;;;;;;5032770;28;20192;-49
2023/05/14 07:58:29;;;;;;;10.30;4.80;;;24.60;99.90;;;;;;5033733;28;20248;-49
2023/05/14 08:00:55;;;;;;;11.00;5.63;;;24.90;99.90;;;;;;5033621;28;20281;-49
2023/05/14 08:03:21;;;;;;;5.17;4.67;;;25.00;99.90;;;;;;5033278;28;20550;-49
2023/05/14 08:05:46;;;;;;;5.63;5.13;;;25.00;99.90;;;;;;5032648;28;20444;-49
2023/05/14 08:08:12;;;;;;;5.43;4.93;;;24.80;99.90;;;;;;5033232;28;20635;-49
2023/05/14 08:10:38;;;;;;;5.10;4.60;;;24.90;99.90;;;;;;5033071;28;20183;-49
2023/05/14 08:13:04;;;;;;;9.43;5.33;;;25.10;99.90;;;;;;5031545;28;20186;-49
2023/05/14 08:15:29;;;;;;;7.63;4.90;;;25.20;99.90;;;;;;5033374;28;20244;-49
2023/05/14 08:17:55;;;;;;;8.50;4.90;;;25.20;99.90;;;;;;5030153;28;20229;-50
2023/05/14 08:20:21;;;;;;;7.17;5.00;;;25.30;99.90;;;;;;5032933;28;20266;-49
2023/05/14 08:22:46;;;;;;;6.77;4.97;;;25.30;99.90;;;;;;5033011;28;20202;-49
2023/05/14 08:25:12;;;;;;;6.70;5.00;;;25.30;99.90;;;;;;5033406;28;20185;-49
2023/05/14 08:27:38;;;;;;;9.13;4.80;;;25.50;99.90;;;;;;5032992;28;20191;-50
2023/05/14 08:30:05;;;;;;;8.70;5.07;;;25.50;99.90;;;;;;5032194;28;20214;-49
2023/05/14 08:32:30;;;;;;;6.23;5.10;;;25.40;99.90;;;;;;5032855;28;20283;-50
2023/05/14 08:34:56;;;;;;;14.33;5.13;;;25.70;99.90;;;;;;5031323;28;20496;-50
2023/05/14 08:37:21;;;;;;;5.37;4.90;;;26.00;99.90;;;;;;5032846;28;20211;-49
2023/05/14 08:39:47;;;;;;;6.70;4.80;;;26.20;99.90;;;;;;5032879;28;20217;-50
2023/05/14 08:42:19;;;;;;;9.23;5.00;;;26.70;99.90;;;;;;5033241;28;20210;-50
2023/05/14 08:44:50;;;;;;;7.20;4.53;;;26.90;99.90;;;;;;5032556;28;20171;-50
2023/05/14 08:47:20;;;;;;;6.10;4.60;;;27.10;99.90;;;;;;5033221;28;20778;-50
2023/05/14 08:49:48;;;;;;;5.20;4.57;;;27.50;99.90;;;;;;5031093;28;20470;-50
2023/05/14 08:52:16;;;;;;;10.17;5.40;;;27.30;99.90;;;;;;5032197;28;20445;-49
2023/05/14 08:54:42;;;;;;;6.70;4.60;;;27.00;99.90;;;;;;5032998;28;20426;-48
2023/05/14 08:57:09;;;;;;;5.97;4.73;;;26.80;99.90;;;;;;5032656;28;20462;-48
2023/05/14 08:59:34;;;;;;;5.20;4.70;;;27.00;99.90;;;;;;5032730;28;20672;-48
2023/05/14 09:02:03;;;;;;;6.70;4.33;;;27.20;99.90;;;;;;5032948;28;20414;-48
2023/05/14 09:04:29;;;;;;;5.60;4.63;;;27.50;99.90;;;;;;5031252;28;20701;-48
2023/05/14 09:06:55;;;;;;;5.03;4.53;;;27.90;99.90;;;;;;5031393;28;20945;-48
2023/05/14 09:09:21;;;;;;;4.93;4.27;;;27.80;99.90;;;;;;5031784;28;20442;-48
2023/05/14 09:11:49;;;;;;;6.00;4.23;;;27.70;99.90;;;;;;5033267;28;20191;-48
2023/05/14 09:14:14;;;;;;;5.30;3.93;;;27.60;99.90;;;;;;5030983;28;20450;-48
2023/05/14 09:16:43;;;;;;;5.40;3.83;;;27.60;99.90;;;;;;5032080;28;20462;-48
2023/05/14 09:19:09;;;;;;;5.80;3.63;;;27.40;99.90;;;;;;5032532;28;20263;-48
2023/05/14 09:21:35;;;;;;;6.60;4.20;;;27.10;99.90;;;;;;5032499;28;20437;-48
2023/05/14 09:24:01;;;;;;;12.73;4.30;;;27.20;99.90;;;;;;5035873;28;20200;-48
2023/05/14 09:26:30;;;;;;;5.93;4.13;;;27.30;99.90;;;;;;5034909;28;20422;-49
2023/05/14 09:29:03;;;;;;;5.00;4.30;;;27.10;99.90;;;;;;5035713;28;20258;-48
2023/05/14 09:31:31;;;;;;;6.97;4.10;;;27.00;99.90;;;;;;5028845;28;20453;-48
2023/05/14 09:33:58;;;;;;;8.37;3.80;;;27.00;99.90;;;;;;5051744;28;20428;-48
2023/05/14 09:36:25;;;;;;;6.97;3.80;;;27.10;99.90;;;;;;5051690;28;20791;-48
2023/05/14 09:38:57;;;;;;;5.97;3.97;;;27.20;99.90;;;;;;5034457;28;20492;-48
2023/05/14 09:41:23;;;;;;;5.47;3.80;;;27.40;99.90;;;;;;5036102;28;20817;-48
2023/05/14 09:43:50;;;;;;;6.50;4.27;;;27.60;99.90;;;;;;5035932;28;20476;-48
2023/05/14 09:46:16;;;;;;;11.13;4.03;;;27.80;99.90;;;;;;5035830;28;20418;-48
2023/05/14 09:48:41;;;;;;;6.83;3.97;;;28.00;99.90;;;;;;5046917;28;20505;-48
2023/05/14 09:51:09;;;;;;;8.10;4.00;;;27.80;99.90;;;;;;5035393;28;20691;-48
2023/05/14 09:53:35;;;;;;;6.97;4.00;;;27.80;99.90;;;;;;5035710;28;20623;-48
2023/05/14 09:56:01;;;;;;;3.87;3.57;;;27.90;99.90;;;;;;5035387;28;20414;-49
2023/05/14 09:58:28;;;;;;;4.20;3.60;;;28.30;99.90;;;;;;5035553;28;20261;-49
2023/05/14 10:00:56;;;;;;;5.00;3.93;;;28.20;99.90;;;;;;5035197;28;20647;-48
2023/05/14 10:03:24;;;;;;;6.50;3.80;;;28.30;99.90;;;;;;5036511;28;20572;-49
2023/05/14 10:05:50;;;;;;;10.10;4.33;;;28.20;99.90;;;;;;5052829;28;20425;-49
2023/05/14 10:08:25;;;;;;;6.33;3.73;;;28.60;99.90;;;;;;5055337;28;20453;-49
2023/05/14 10:10:53;;;;;;;3.40;3.10;;;29.00;99.90;;;;;;5052981;28;20434;-49
2023/05/14 10:13:29;;;;;;;6.67;3.60;;;28.60;99.90;;;;;;5055430;28;20418;-49
2023/05/14 10:16:27;;;;;;;4.27;3.87;;;28.80;99.90;;;;;;5030438;28;20926;-49
2023/05/14 10:18:57;;;;;;;3.73;3.40;;;28.90;99.90;;;;;;5015463;28;20478;-49
2023/05/14 10:21:24;;;;;;;4.30;3.40;;;29.00;99.90;;;;;;5030344;28;20466;-49
2023/05/14 10:23:51;;;;;;;7.43;3.60;;;29.30;99.90;;;;;;5051789;28;20413;-49
2023/05/14 10:26:17;;;;;;;4.83;3.83;;;29.20;99.90;;;;;;5035490;28;20481;-49
2023/05/14 10:28:43;;;;;;;9.67;3.97;;;28.70;99.90;;;;;;5034019;28;20438;-49
2023/05/14 10:31:09;;;;;;;6.60;3.70;;;29.00;99.90;;;;;;5035489;28;20187;-49
2023/05/14 10:33:49;;;;;;;3.90;3.60;;;29.40;99.90;;;;;;5035084;28;20817;-49
2023/05/14 10:36:16;;;;;;;5.87;4.30;;;29.40;99.90;;;;;;5042960;28;20450;-49
2023/05/14 10:38:41;;;;;;;9.00;4.20;;;28.90;99.90;;;;;;5043879;28;20572;-49
2023/05/14 10:41:12;;;;;;;5.80;3.77;;;28.10;99.90;;;;;;5035446;28;20459;-49
2023/05/14 10:43:39;;;;;;;4.20;3.80;;;27.30;99.90;;;;;;5034927;28;20201;-49
2023/05/14 10:46:07;;;;;;;7.33;4.07;;;26.80;99.90;;;;;;5037065;28;20431;-49
2023/05/14 10:48:33;;;;;;;6.30;3.77;;;26.70;99.90;;;;;;5044900;28;20772;-49
2023/05/14 10:51:00;;;;;;;4.17;3.77;;;26.40;99.90;;;;;;5055021;28;20461;-49
2023/05/14 10:53:37;;;;;;;5.23;3.80;;;26.30;99.90;;;;;;5037966;28;20418;-49
2023/05/14 10:56:07;;;;;;;6.20;4.17;;;26.80;99.90;;;;;;5035378;28;20418;-49
2023/05/14 10:58:37;;;;;;;3.97;3.67;;;27.40;99.90;;;;;;5035129;28;20488;-49
2023/05/14 11:01:05;;;;;;;4.63;3.80;;;28.20;99.90;;;;;;5039020;28;20453;-49
2023/05/14 11:03:31;;;;;;;4.47;4.07;;;28.10;99.90;;;;;;5041408;28;20425;-49
2023/05/14 11:06:02;;;;;;;5.97;4.20;;;28.00;99.90;;;;;;5033214;28;20446;-49
2023/05/14 11:08:27;;;;;;;4.17;3.80;;;28.20;99.90;;;;;;5034690;28;20414;-50
2023/05/14 11:10:54;;;;;;;5.00;4.40;;;28.20;99.90;;;;;;5038077;28;20821;-50
2023/05/14 11:13:20;;;;;;;5.10;4.13;;;28.20;99.90;;;;;;5040337;28;20190;-49
2023/05/14 11:15:47;;;;;;;5.13;4.07;;;28.50;99.90;;;;;;5034595;28;20422;-50
2023/05/14 11:18:12;;;;;;;5.03;4.00;;;29.20;99.90;;;;;;5034403;28;20497;-50
2023/05/14 11:20:38;;;;;;;7.13;4.10;;;29.60;99.90;;;;;;5034888;28;20476;-50
2023/05/14 11:23:04;;;;;;;4.10;3.80;;;30.30;99.90;;;;;;5031807;28;20187;-50
2023/05/14 11:25:29;;;;;;;6.30;4.27;;;30.60;99.90;;;;;;5032819;28;20810;-50
2023/05/14 11:27:57;;;;;;;4.30;3.90;;;30.70;99.90;;;;;;5034482;28;20179;-50
2023/05/14 11:30:23;;;;;;;7.63;3.50;;;30.60;99.90;;;;;;5034243;28;20198;-51
2023/05/14 11:32:49;;;;;;;7.97;4.17;;;30.60;99.90;;;;;;5032858;28;20442;-50
2023/05/14 11:35:16;;;;;;;7.97;3.50;;;30.20;99.90;;;;;;5028983;28;20187;-50
2023/05/14 11:37:42;;;;;;;5.73;3.47;;;30.30;99.90;;;;;;5033878;28;20478;-50
2023/05/14 11:40:17;;;;;;;3.73;3.43;;;30.50;99.90;;;;;;5032775;28;20438;-50
2023/05/14 11:42:43;;;;;;;5.77;4.20;;;30.30;99.90;;;;;;5033242;28;20406;-50
2023/05/14 11:45:13;;;;;;;6.30;4.00;;;30.10;99.90;;;;;;5033678;28;20738;-50
2023/05/14 11:47:40;;;;;;;4.90;4.30;;;30.20;99.90;;;;;;5034516;28;20503;-50
2023/05/14 11:50:06;;;;;;;5.90;4.07;;;30.40;99.90;;;;;;5033359;28;20777;-50
2023/05/14 11:52:39;;;;;;;4.43;4.03;;;30.80;99.90;;;;;;5033698;28;20430;-50
2023/05/14 11:55:05;;;;;;;5.40;4.33;;;31.00;99.90;;;;;;5033855;28;20468;-50
2023/05/14 11:57:30;;;;;;;7.57;3.93;;;31.20;99.90;;;;;;5034160;28;20548;-50
2023/05/14 11:59:56;;;;;;;4.37;3.93;;;31.10;99.90;;;;;;5034110;28;20445;-50
2023/05/14 12:02:25;;;;;;;4.23;3.63;;;30.60;99.90;;;;;;5033625;28;20183;-50
2023/05/14 12:04:52;;;;;;;4.60;4.20;;;29.80;99.90;;;;;;5033611;28;20629;-50
2023/05/14 12:07:18;;;;;;;4.80;4.40;;;29.40;99.90;;;;;;5033779;28;20414;-50
2023/05/14 12:09:48;;;;;;;4.67;3.53;;;29.20;99.90;;;;;;5033799;28;20752;-50
2023/05/14 12:12:16;;;;;;;4.40;4.00;;;28.50;99.90;;;;;;5033721;28;20655;-50
2023/05/14 12:14:42;;;;;;;6.70;3.83;;;27.50;99.90;;;;;;5033840;28;20785;-50
2023/05/14 12:17:18;;;;;;;5.03;4.03;;;26.70;99.90;;;;;;5033660;28;20548;-50
2023/05/14 12:19:46;;;;;;;4.20;3.80;;;26.00;99.90;;;;;;5033632;28;20417;-50
2023/05/14 12:22:14;;;;;;;7.00;4.70;;;25.90;99.90;;;;;;5032956;28;20430;-50
2023/05/14 12:24:41;;;;;;;5.27;3.87;;;26.60;99.90;;;;;;5032321;28;20942;-50
2023/05/14 12:27:09;;;;;;;6.43;4.00;;;27.30;99.90;;;;;;5032582;28;20430;-50
2023/05/14 12:29:36;;;;;;;8.30;4.67;;;28.10;99.90;;;;;;5033086;28;20442;-50
2023/05/14 12:32:07;;;;;;;5.47;3.80;;;28.80;99.90;;;;;;5033684;28;20757;-50
2023/05/14 12:34:33;;;;;;;7.53;3.97;;;29.80;99.90;;;;;;5033614;28;20410;-50
2023/05/14 12:36:58;;;;;;;7.97;3.83;;;30.30;99.90;;;;;;5033516;28;20464;-50
2023/05/14 12:39:24;;;;;;;5.10;4.00;;;30.30;99.90;;;;;;5033598;28;20183;-50
2023/05/14 12:41:49;;;;;;;4.00;3.60;;;30.20;99.90;;;;;;5033698;28;20176;-50